sensor_id;sensor_type;location;lat;lon;timestamp;P1;durP1;ratioP1;P2;durP2;ratioP2
68653;SDS011;55636;51.108;13.622;2022-09-09T00:00:19;1.60;;;1.50;;
68653;SDS011;55636;51.108;13.622;2022-09-09T00:02:34;1.45;;;1.35;;
68653;SDS011;55636;51.108;13.622;2022-09-09T00:03:44;1.65;;;1.55;;
68653;SDS011;55636;51.108;13.622;2022-09-09T00:06:29;2.35;;;1.60;;
68653;SDS011;55636;51.108;13.622;2022-09-09T00:07:51;1.83;;;1.65;;
68653;SDS011;55636;51.108;13.622;2022-09-09T00:09:10;1.95;;;1.60;;
68653;SDS011;55636;51.108;13.622;2022-09-09T00:10:17;1.77;;;1.67;;
68653;SDS011;55636;51.108;13.622;2022-09-09T00:11:29;1.60;;;1.50;;
68653;SDS011;55636;51.108;13.622;2022-09-09T00:14:37;2.72;;;1.70;;
68653;SDS011;55636;51.108;13.622;2022-09-09T00:16:03;3.03;;;1.75;;
68653;SDS011;55636;51.108;13.622;2022-09-09T00:17:18;1.70;;;1.60;;
68653;SDS011;55636;51.108;13.622;2022-09-09T00:21:18;4.32;;;1.90;;
68653;SDS011;55636;51.108;13.622;2022-09-09T00:22:25;1.73;;;1.63;;
68653;SDS011;55636;51.108;13.622;2022-09-09T00:23:33;2.92;;;1.80;;
68653;SDS011;55636;51.108;13.622;2022-09-09T00:24:41;1.65;;;1.55;;
68653;SDS011;55636;51.108;13.622;2022-09-09T00:25:49;2.97;;;1.70;;
68653;SDS011;55636;51.108;13.622;2022-09-09T00:26:56;2.72;;;1.60;;
68653;SDS011;55636;51.108;13.622;2022-09-09T00:28:10;2.83;;;1.70;;
68653;SDS011;55636;51.108;13.622;2022-09-09T00:29:33;2.15;;;1.50;;
68653;SDS011;55636;51.108;13.622;2022-09-09T00:30:43;1.48;;;1.38;;
68653;SDS011;55636;51.108;13.622;2022-09-09T00:31:50;1.67;;;1.58;;
68653;SDS011;55636;51.108;13.622;2022-09-09T00:32:59;1.70;;;1.60;;
68653;SDS011;55636;51.108;13.622;2022-09-09T00:34:11;2.15;;;1.60;;
68653;SDS011;55636;51.108;13.622;2022-09-09T00:35:24;1.98;;;1.48;;
68653;SDS011;55636;51.108;13.622;2022-09-09T00:36:32;2.33;;;1.70;;
68653;SDS011;55636;51.108;13.622;2022-09-09T00:37:36;1.65;;;1.55;;
68653;SDS011;55636;51.108;13.622;2022-09-09T00:38:42;1.70;;;1.60;;
68653;SDS011;55636;51.108;13.622;2022-09-09T00:39:49;2.33;;;1.80;;
68653;SDS011;55636;51.108;13.622;2022-09-09T00:42:12;1.70;;;1.60;;
68653;SDS011;55636;51.108;13.622;2022-09-09T00:44:33;2.88;;;1.50;;
68653;SDS011;55636;51.108;13.622;2022-09-09T00:46:54;1.60;;;1.50;;
68653;SDS011;55636;51.108;13.622;2022-09-09T00:48:07;2.08;;;1.75;;
68653;SDS011;55636;51.108;13.622;2022-09-09T00:50:47;1.70;;;1.60;;
68653;SDS011;55636;51.108;13.622;2022-09-09T00:52:08;2.50;;;1.50;;
68653;SDS011;55636;51.108;13.622;2022-09-09T00:54:40;1.63;;;1.52;;
68653;SDS011;55636;51.108;13.622;2022-09-09T00:58:15;1.50;;;1.40;;
68653;SDS011;55636;51.108;13.622;2022-09-09T01:00:52;1.50;;;1.35;;
68653;SDS011;55636;51.108;13.622;2022-09-09T01:02:13;2.35;;;1.40;;
68653;SDS011;55636;51.108;13.622;2022-09-09T01:04:35;1.65;;;1.55;;
68653;SDS011;55636;51.108;13.622;2022-09-09T01:05:41;1.33;;;1.23;;
68653;SDS011;55636;51.108;13.622;2022-09-09T01:06:47;2.10;;;1.58;;
68653;SDS011;55636;51.108;13.622;2022-09-09T01:07:55;1.55;;;1.45;;
68653;SDS011;55636;51.108;13.622;2022-09-09T01:11:57;1.65;;;1.55;;
68653;SDS011;55636;51.108;13.622;2022-09-09T01:13:05;3.88;;;1.55;;
68653;SDS011;55636;51.108;13.622;2022-09-09T01:14:36;1.90;;;1.65;;
68653;SDS011;55636;51.108;13.622;2022-09-09T01:15:43;4.20;;;1.60;;
68653;SDS011;55636;51.108;13.622;2022-09-09T01:16:49;1.73;;;1.55;;
68653;SDS011;55636;51.108;13.622;2022-09-09T01:18:13;3.30;;;1.55;;
68653;SDS011;55636;51.108;13.622;2022-09-09T01:19:25;3.65;;;1.60;;
68653;SDS011;55636;51.108;13.622;2022-09-09T01:26:43;2.30;;;1.60;;
68653;SDS011;55636;51.108;13.622;2022-09-09T01:27:56;1.95;;;1.75;;
68653;SDS011;55636;51.108;13.622;2022-09-09T01:29:02;2.60;;;1.80;;
68653;SDS011;55636;51.108;13.622;2022-09-09T01:30:14;2.42;;;1.52;;
68653;SDS011;55636;51.108;13.622;2022-09-09T01:31:21;1.52;;;1.35;;
68653;SDS011;55636;51.108;13.622;2022-09-09T01:32:44;2.92;;;1.52;;
68653;SDS011;55636;51.108;13.622;2022-09-09T01:33:56;3.67;;;1.50;;
68653;SDS011;55636;51.108;13.622;2022-09-09T01:34:58;1.40;;;1.30;;
68653;SDS011;55636;51.108;13.622;2022-09-09T01:36:05;2.10;;;1.58;;
68653;SDS011;55636;51.108;13.622;2022-09-09T01:37:20;1.98;;;1.30;;
68653;SDS011;55636;51.108;13.622;2022-09-09T01:38:23;1.80;;;1.48;;
68653;SDS011;55636;51.108;13.622;2022-09-09T01:39:27;1.50;;;1.40;;
68653;SDS011;55636;51.108;13.622;2022-09-09T01:40:37;1.55;;;1.45;;
68653;SDS011;55636;51.108;13.622;2022-09-09T01:41:40;3.15;;;1.45;;
68653;SDS011;55636;51.108;13.622;2022-09-09T01:42:45;1.60;;;1.50;;
68653;SDS011;55636;51.108;13.622;2022-09-09T01:43:48;1.30;;;1.20;;
68653;SDS011;55636;51.108;13.622;2022-09-09T01:44:51;2.13;;;1.50;;
68653;SDS011;55636;51.108;13.622;2022-09-09T01:45:54;2.15;;;1.40;;
68653;SDS011;55636;51.108;13.622;2022-09-09T01:46:58;2.22;;;1.70;;
68653;SDS011;55636;51.108;13.622;2022-09-09T01:48:00;1.92;;;1.65;;
68653;SDS011;55636;51.108;13.622;2022-09-09T01:49:19;2.60;;;1.90;;
68653;SDS011;55636;51.108;13.622;2022-09-09T01:50:22;1.83;;;1.42;;
68653;SDS011;55636;51.108;13.622;2022-09-09T01:51:24;3.00;;;1.30;;
68653;SDS011;55636;51.108;13.622;2022-09-09T01:52:27;1.63;;;1.40;;
68653;SDS011;55636;51.108;13.622;2022-09-09T01:53:29;1.50;;;1.40;;
68653;SDS011;55636;51.108;13.622;2022-09-09T01:54:32;3.25;;;1.50;;
68653;SDS011;55636;51.108;13.622;2022-09-09T01:55:40;1.92;;;1.35;;
68653;SDS011;55636;51.108;13.622;2022-09-09T02:00:11;2.35;;;1.40;;
68653;SDS011;55636;51.108;13.622;2022-09-09T02:01:17;2.33;;;1.40;;
68653;SDS011;55636;51.108;13.622;2022-09-09T02:02:33;1.40;;;1.30;;
68653;SDS011;55636;51.108;13.622;2022-09-09T02:03:50;2.55;;;1.50;;
68653;SDS011;55636;51.108;13.622;2022-09-09T02:05:03;1.40;;;1.30;;
68653;SDS011;55636;51.108;13.622;2022-09-09T02:08:00;1.40;;;1.30;;
68653;SDS011;55636;51.108;13.622;2022-09-09T02:09:24;1.50;;;1.40;;
68653;SDS011;55636;51.108;13.622;2022-09-09T02:10:31;1.50;;;1.40;;
68653;SDS011;55636;51.108;13.622;2022-09-09T02:11:46;1.90;;;1.20;;
68653;SDS011;55636;51.108;13.622;2022-09-09T02:13:21;2.13;;;1.40;;
68653;SDS011;55636;51.108;13.622;2022-09-09T02:14:27;1.85;;;1.50;;
68653;SDS011;55636;51.108;13.622;2022-09-09T02:15:42;1.95;;;1.40;;
68653;SDS011;55636;51.108;13.622;2022-09-09T02:16:51;2.33;;;1.20;;
68653;SDS011;55636;51.108;13.622;2022-09-09T02:18:04;1.67;;;1.48;;
68653;SDS011;55636;51.108;13.622;2022-09-09T02:20:39;1.40;;;1.30;;
68653;SDS011;55636;51.108;13.622;2022-09-09T02:21:43;1.48;;;1.38;;
68653;SDS011;55636;51.108;13.622;2022-09-09T02:22:49;2.65;;;1.25;;
68653;SDS011;55636;51.108;13.622;2022-09-09T02:23:54;1.90;;;1.52;;
68653;SDS011;55636;51.108;13.622;2022-09-09T02:25:00;4.20;;;1.50;;
68653;SDS011;55636;51.108;13.622;2022-09-09T02:26:04;2.28;;;1.50;;
68653;SDS011;55636;51.108;13.622;2022-09-09T02:27:08;1.42;;;1.20;;
68653;SDS011;55636;51.108;13.622;2022-09-09T02:28:11;2.05;;;1.70;;
68653;SDS011;55636;51.108;13.622;2022-09-09T02:29:19;1.75;;;1.42;;
68653;SDS011;55636;51.108;13.622;2022-09-09T02:30:28;2.45;;;1.50;;
68653;SDS011;55636;51.108;13.622;2022-09-09T02:31:35;1.50;;;1.40;;
68653;SDS011;55636;51.108;13.622;2022-09-09T02:32:43;1.42;;;1.33;;
68653;SDS011;55636;51.108;13.622;2022-09-09T02:33:57;1.85;;;1.50;;
68653;SDS011;55636;51.108;13.622;2022-09-09T02:35:04;2.22;;;1.30;;
68653;SDS011;55636;51.108;13.622;2022-09-09T02:36:10;1.92;;;1.38;;
68653;SDS011;55636;51.108;13.622;2022-09-09T02:37:19;2.95;;;1.35;;
68653;SDS011;55636;51.108;13.622;2022-09-09T02:38:28;1.45;;;1.27;;
68653;SDS011;55636;51.108;13.622;2022-09-09T02:39:40;2.08;;;1.38;;
68653;SDS011;55636;51.108;13.622;2022-09-09T02:40:46;2.05;;;1.45;;
68653;SDS011;55636;51.108;13.622;2022-09-09T02:41:49;2.65;;;1.33;;
68653;SDS011;55636;51.108;13.622;2022-09-09T02:42:54;1.50;;;1.40;;
68653;SDS011;55636;51.108;13.622;2022-09-09T02:43:57;2.15;;;1.30;;
68653;SDS011;55636;51.108;13.622;2022-09-09T02:45:00;2.55;;;1.60;;
68653;SDS011;55636;51.108;13.622;2022-09-09T02:50:01;1.45;;;1.20;;
68653;SDS011;55636;51.108;13.622;2022-09-09T02:52:15;1.77;;;1.25;;
68653;SDS011;55636;51.108;13.622;2022-09-09T02:56:52;1.90;;;1.30;;
68653;SDS011;55636;51.108;13.622;2022-09-09T02:58:08;4.13;;;1.40;;
68653;SDS011;55636;51.108;13.622;2022-09-09T02:59:14;4.15;;;1.40;;
68653;SDS011;55636;51.108;13.622;2022-09-09T03:00:21;2.15;;;1.50;;
68653;SDS011;55636;51.108;13.622;2022-09-09T03:01:32;1.48;;;1.30;;
68653;SDS011;55636;51.108;13.622;2022-09-09T03:02:38;3.25;;;1.70;;
68653;SDS011;55636;51.108;13.622;2022-09-09T03:03:42;3.83;;;1.50;;
68653;SDS011;55636;51.108;13.622;2022-09-09T03:04:49;2.80;;;1.52;;
68653;SDS011;55636;51.108;13.622;2022-09-09T03:05:54;2.97;;;1.60;;
68653;SDS011;55636;51.108;13.622;2022-09-09T03:06:57;2.85;;;1.45;;
68653;SDS011;55636;51.108;13.622;2022-09-09T03:08:00;2.15;;;1.60;;
68653;SDS011;55636;51.108;13.622;2022-09-09T03:09:04;2.05;;;1.52;;
68653;SDS011;55636;51.108;13.622;2022-09-09T03:10:07;2.05;;;1.60;;
68653;SDS011;55636;51.108;13.622;2022-09-09T03:11:10;2.00;;;1.80;;
68653;SDS011;55636;51.108;13.622;2022-09-09T03:12:12;1.88;;;1.55;;
68653;SDS011;55636;51.108;13.622;2022-09-09T03:13:15;2.55;;;1.55;;
68653;SDS011;55636;51.108;13.622;2022-09-09T03:14:18;1.83;;;1.50;;
68653;SDS011;55636;51.108;13.622;2022-09-09T03:15:24;2.60;;;1.60;;
68653;SDS011;55636;51.108;13.622;2022-09-09T03:16:33;3.97;;;1.50;;
68653;SDS011;55636;51.108;13.622;2022-09-09T03:17:36;1.90;;;1.70;;
68653;SDS011;55636;51.108;13.622;2022-09-09T03:18:39;2.10;;;1.50;;
68653;SDS011;55636;51.108;13.622;2022-09-09T03:19:41;2.78;;;1.77;;
68653;SDS011;55636;51.108;13.622;2022-09-09T03:20:45;3.30;;;1.63;;
68653;SDS011;55636;51.108;13.622;2022-09-09T03:21:50;3.05;;;1.67;;
68653;SDS011;55636;51.108;13.622;2022-09-09T03:22:53;2.63;;;1.60;;
68653;SDS011;55636;51.108;13.622;2022-09-09T03:23:56;1.73;;;1.55;;
68653;SDS011;55636;51.108;13.622;2022-09-09T03:24:59;2.40;;;1.63;;
68653;SDS011;55636;51.108;13.622;2022-09-09T03:26:02;2.28;;;1.80;;
68653;SDS011;55636;51.108;13.622;2022-09-09T03:27:18;2.50;;;1.80;;
68653;SDS011;55636;51.108;13.622;2022-09-09T03:28:21;2.97;;;1.70;;
68653;SDS011;55636;51.108;13.622;2022-09-09T03:29:25;3.45;;;2.03;;
68653;SDS011;55636;51.108;13.622;2022-09-09T03:30:46;3.05;;;1.60;;
68653;SDS011;55636;51.108;13.622;2022-09-09T03:31:49;2.53;;;1.70;;
68653;SDS011;55636;51.108;13.622;2022-09-09T03:32:53;2.47;;;1.77;;
68653;SDS011;55636;51.108;13.622;2022-09-09T03:33:58;3.05;;;1.60;;
68653;SDS011;55636;51.108;13.622;2022-09-09T03:35:05;2.28;;;1.58;;
68653;SDS011;55636;51.108;13.622;2022-09-09T03:36:08;3.75;;;1.70;;
68653;SDS011;55636;51.108;13.622;2022-09-09T03:37:10;3.22;;;1.42;;
68653;SDS011;55636;51.108;13.622;2022-09-09T03:38:13;2.92;;;1.60;;
68653;SDS011;55636;51.108;13.622;2022-09-09T03:39:16;2.70;;;1.52;;
68653;SDS011;55636;51.108;13.622;2022-09-09T03:40:18;1.92;;;1.45;;
68653;SDS011;55636;51.108;13.622;2022-09-09T03:41:22;2.10;;;1.50;;
68653;SDS011;55636;51.108;13.622;2022-09-09T03:42:26;1.80;;;1.50;;
68653;SDS011;55636;51.108;13.622;2022-09-09T03:43:30;3.65;;;1.70;;
68653;SDS011;55636;51.108;13.622;2022-09-09T03:44:33;2.45;;;1.80;;
68653;SDS011;55636;51.108;13.622;2022-09-09T03:45:35;2.78;;;1.83;;
68653;SDS011;55636;51.108;13.622;2022-09-09T03:46:37;4.13;;;2.03;;
68653;SDS011;55636;51.108;13.622;2022-09-09T03:47:40;3.35;;;1.90;;
68653;SDS011;55636;51.108;13.622;2022-09-09T03:48:42;3.20;;;2.08;;
68653;SDS011;55636;51.108;13.622;2022-09-09T03:49:45;4.22;;;2.30;;
68653;SDS011;55636;51.108;13.622;2022-09-09T03:50:51;4.28;;;2.92;;
68653;SDS011;55636;51.108;13.622;2022-09-09T03:51:55;4.20;;;2.90;;
68653;SDS011;55636;51.108;13.622;2022-09-09T03:52:59;3.83;;;2.90;;
68653;SDS011;55636;51.108;13.622;2022-09-09T03:54:01;3.40;;;2.90;;
68653;SDS011;55636;51.108;13.622;2022-09-09T03:55:03;4.78;;;3.30;;
68653;SDS011;55636;51.108;13.622;2022-09-09T03:56:07;3.63;;;3.08;;
68653;SDS011;55636;51.108;13.622;2022-09-09T03:57:09;4.95;;;3.28;;
68653;SDS011;55636;51.108;13.622;2022-09-09T03:58:12;4.32;;;3.35;;
68653;SDS011;55636;51.108;13.622;2022-09-09T03:59:16;6.70;;;3.70;;
68653;SDS011;55636;51.108;13.622;2022-09-09T04:00:18;4.35;;;3.60;;
68653;SDS011;55636;51.108;13.622;2022-09-09T04:01:26;4.72;;;3.60;;
68653;SDS011;55636;51.108;13.622;2022-09-09T04:02:29;4.70;;;3.67;;
68653;SDS011;55636;51.108;13.622;2022-09-09T04:03:31;5.25;;;3.70;;
68653;SDS011;55636;51.108;13.622;2022-09-09T04:04:35;4.07;;;3.67;;
68653;SDS011;55636;51.108;13.622;2022-09-09T04:05:41;5.70;;;3.40;;
68653;SDS011;55636;51.108;13.622;2022-09-09T04:06:45;4.50;;;3.53;;
68653;SDS011;55636;51.108;13.622;2022-09-09T04:07:49;4.45;;;3.30;;
68653;SDS011;55636;51.108;13.622;2022-09-09T04:08:53;5.47;;;3.20;;
68653;SDS011;55636;51.108;13.622;2022-09-09T04:09:55;3.20;;;2.88;;
68653;SDS011;55636;51.108;13.622;2022-09-09T04:10:58;3.88;;;3.15;;
68653;SDS011;55636;51.108;13.622;2022-09-09T04:12:02;4.15;;;2.60;;
68653;SDS011;55636;51.108;13.622;2022-09-09T04:13:05;2.65;;;2.42;;
68653;SDS011;55636;51.108;13.622;2022-09-09T04:14:07;3.72;;;2.30;;
68653;SDS011;55636;51.108;13.622;2022-09-09T04:15:10;2.70;;;2.47;;
68653;SDS011;55636;51.108;13.622;2022-09-09T04:16:14;3.65;;;2.15;;
68653;SDS011;55636;51.108;13.622;2022-09-09T04:17:18;2.70;;;2.15;;
68653;SDS011;55636;51.108;13.622;2022-09-09T04:18:20;3.15;;;2.00;;
68653;SDS011;55636;51.108;13.622;2022-09-09T04:19:23;2.20;;;2.00;;
68653;SDS011;55636;51.108;13.622;2022-09-09T04:20:25;2.80;;;1.80;;
68653;SDS011;55636;51.108;13.622;2022-09-09T04:21:28;2.45;;;1.60;;
68653;SDS011;55636;51.108;13.622;2022-09-09T04:22:30;2.97;;;2.03;;
68653;SDS011;55636;51.108;13.622;2022-09-09T04:23:34;2.13;;;1.70;;
68653;SDS011;55636;51.108;13.622;2022-09-09T04:24:36;4.65;;;1.95;;
68653;SDS011;55636;51.108;13.622;2022-09-09T04:25:43;2.70;;;1.70;;
68653;SDS011;55636;51.108;13.622;2022-09-09T04:26:46;3.53;;;1.45;;
68653;SDS011;55636;51.108;13.622;2022-09-09T04:27:54;2.45;;;1.70;;
68653;SDS011;55636;51.108;13.622;2022-09-09T04:28:57;3.65;;;1.90;;
68653;SDS011;55636;51.108;13.622;2022-09-09T04:29:59;2.20;;;1.70;;
68653;SDS011;55636;51.108;13.622;2022-09-09T04:31:14;2.22;;;1.75;;
68653;SDS011;55636;51.108;13.622;2022-09-09T04:32:21;2.78;;;1.60;;
68653;SDS011;55636;51.108;13.622;2022-09-09T04:33:24;2.88;;;1.80;;
68653;SDS011;55636;51.108;13.622;2022-09-09T04:34:28;2.65;;;1.75;;
68653;SDS011;55636;51.108;13.622;2022-09-09T04:35:30;4.05;;;1.90;;
68653;SDS011;55636;51.108;13.622;2022-09-09T04:36:33;3.90;;;1.60;;
68653;SDS011;55636;51.108;13.622;2022-09-09T04:37:38;1.60;;;1.45;;
68653;SDS011;55636;51.108;13.622;2022-09-09T04:38:41;3.08;;;1.60;;
68653;SDS011;55636;51.108;13.622;2022-09-09T04:39:44;3.15;;;1.75;;
68653;SDS011;55636;51.108;13.622;2022-09-09T04:40:47;1.85;;;1.58;;
68653;SDS011;55636;51.108;13.622;2022-09-09T04:41:50;2.10;;;1.65;;
68653;SDS011;55636;51.108;13.622;2022-09-09T04:42:52;2.03;;;1.63;;
68653;SDS011;55636;51.108;13.622;2022-09-09T04:43:54;3.35;;;1.70;;
68653;SDS011;55636;51.108;13.622;2022-09-09T04:44:56;2.42;;;1.90;;
68653;SDS011;55636;51.108;13.622;2022-09-09T04:45:59;2.40;;;1.70;;
68653;SDS011;55636;51.108;13.622;2022-09-09T04:47:01;1.95;;;1.60;;
68653;SDS011;55636;51.108;13.622;2022-09-09T04:48:03;4.85;;;1.90;;
68653;SDS011;55636;51.108;13.622;2022-09-09T04:49:06;2.17;;;1.60;;
68653;SDS011;55636;51.108;13.622;2022-09-09T04:50:13;2.53;;;1.50;;
68653;SDS011;55636;51.108;13.622;2022-09-09T04:51:20;1.95;;;1.60;;
68653;SDS011;55636;51.108;13.622;2022-09-09T04:52:24;2.60;;;1.63;;
68653;SDS011;55636;51.108;13.622;2022-09-09T04:53:26;2.33;;;1.67;;
68653;SDS011;55636;51.108;13.622;2022-09-09T04:54:29;4.68;;;1.65;;
68653;SDS011;55636;51.108;13.622;2022-09-09T04:55:32;3.75;;;1.70;;
68653;SDS011;55636;51.108;13.622;2022-09-09T04:56:36;2.83;;;1.70;;
68653;SDS011;55636;51.108;13.622;2022-09-09T04:57:39;3.83;;;1.60;;
68653;SDS011;55636;51.108;13.622;2022-09-09T04:58:45;1.88;;;1.50;;
68653;SDS011;55636;51.108;13.622;2022-09-09T04:59:49;1.98;;;1.63;;
68653;SDS011;55636;51.108;13.622;2022-09-09T05:00:51;3.40;;;1.50;;
68653;SDS011;55636;51.108;13.622;2022-09-09T05:01:54;2.75;;;1.70;;
68653;SDS011;55636;51.108;13.622;2022-09-09T05:02:57;2.88;;;1.42;;
68653;SDS011;55636;51.108;13.622;2022-09-09T05:03:59;3.63;;;1.55;;
68653;SDS011;55636;51.108;13.622;2022-09-09T05:05:01;3.03;;;1.70;;
68653;SDS011;55636;51.108;13.622;2022-09-09T05:06:09;2.85;;;1.60;;
68653;SDS011;55636;51.108;13.622;2022-09-09T05:07:13;2.58;;;1.80;;
68653;SDS011;55636;51.108;13.622;2022-09-09T05:08:16;5.13;;;1.75;;
68653;SDS011;55636;51.108;13.622;2022-09-09T05:09:19;2.13;;;1.67;;
68653;SDS011;55636;51.108;13.622;2022-09-09T05:10:22;2.75;;;1.73;;
68653;SDS011;55636;51.108;13.622;2022-09-09T05:11:25;4.07;;;1.60;;
68653;SDS011;55636;51.108;13.622;2022-09-09T05:12:34;1.88;;;1.58;;
68653;SDS011;55636;51.108;13.622;2022-09-09T05:13:36;2.35;;;1.80;;
68653;SDS011;55636;51.108;13.622;2022-09-09T05:14:42;2.33;;;1.50;;
68653;SDS011;55636;51.108;13.622;2022-09-09T05:15:51;3.33;;;1.65;;
68653;SDS011;55636;51.108;13.622;2022-09-09T05:16:55;2.58;;;1.50;;
68653;SDS011;55636;51.108;13.622;2022-09-09T05:17:59;2.20;;;1.63;;
68653;SDS011;55636;51.108;13.622;2022-09-09T05:19:05;2.97;;;1.85;;
68653;SDS011;55636;51.108;13.622;2022-09-09T05:20:19;2.10;;;1.58;;
68653;SDS011;55636;51.108;13.622;2022-09-09T05:21:22;5.03;;;1.60;;
68653;SDS011;55636;51.108;13.622;2022-09-09T05:22:26;1.92;;;1.75;;
68653;SDS011;55636;51.108;13.622;2022-09-09T05:23:28;3.05;;;1.67;;
68653;SDS011;55636;51.108;13.622;2022-09-09T05:24:30;1.98;;;1.80;;
68653;SDS011;55636;51.108;13.622;2022-09-09T05:25:35;1.67;;;1.48;;
68653;SDS011;55636;51.108;13.622;2022-09-09T05:26:39;2.60;;;2.08;;
68653;SDS011;55636;51.108;13.622;2022-09-09T05:27:41;3.38;;;1.90;;
68653;SDS011;55636;51.108;13.622;2022-09-09T05:28:44;6.55;;;1.80;;
68653;SDS011;55636;51.108;13.622;2022-09-09T05:29:48;2.00;;;1.80;;
68653;SDS011;55636;51.108;13.622;2022-09-09T05:30:56;1.88;;;1.58;;
68653;SDS011;55636;51.108;13.622;2022-09-09T05:32:01;4.40;;;2.08;;
68653;SDS011;55636;51.108;13.622;2022-09-09T05:33:04;3.47;;;1.90;;
68653;SDS011;55636;51.108;13.622;2022-09-09T05:34:07;2.92;;;2.15;;
68653;SDS011;55636;51.108;13.622;2022-09-09T05:35:10;2.00;;;1.80;;
68653;SDS011;55636;51.108;13.622;2022-09-09T05:36:14;2.28;;;1.90;;
68653;SDS011;55636;51.108;13.622;2022-09-09T05:37:20;4.53;;;2.00;;
68653;SDS011;55636;51.108;13.622;2022-09-09T05:38:23;3.92;;;2.30;;
68653;SDS011;55636;51.108;13.622;2022-09-09T05:39:30;2.25;;;1.90;;
68653;SDS011;55636;51.108;13.622;2022-09-09T05:40:32;3.45;;;2.08;;
68653;SDS011;55636;51.108;13.622;2022-09-09T05:41:34;4.50;;;2.30;;
68653;SDS011;55636;51.108;13.622;2022-09-09T05:42:38;3.97;;;2.50;;
68653;SDS011;55636;51.108;13.622;2022-09-09T05:43:41;2.97;;;2.40;;
68653;SDS011;55636;51.108;13.622;2022-09-09T05:44:47;4.00;;;2.60;;
68653;SDS011;55636;51.108;13.622;2022-09-09T05:45:58;3.60;;;2.38;;
68653;SDS011;55636;51.108;13.622;2022-09-09T05:47:11;3.55;;;2.30;;
68653;SDS011;55636;51.108;13.622;2022-09-09T05:48:14;2.40;;;2.20;;
68653;SDS011;55636;51.108;13.622;2022-09-09T05:49:18;3.20;;;2.38;;
68653;SDS011;55636;51.108;13.622;2022-09-09T05:50:22;3.65;;;2.42;;
68653;SDS011;55636;51.108;13.622;2022-09-09T05:51:26;2.95;;;2.30;;
68653;SDS011;55636;51.108;13.622;2022-09-09T05:52:34;3.58;;;2.40;;
68653;SDS011;55636;51.108;13.622;2022-09-09T05:53:36;3.45;;;2.42;;
68653;SDS011;55636;51.108;13.622;2022-09-09T05:54:39;4.50;;;2.38;;
68653;SDS011;55636;51.108;13.622;2022-09-09T05:55:43;3.15;;;2.30;;
68653;SDS011;55636;51.108;13.622;2022-09-09T05:56:47;3.83;;;2.60;;
68653;SDS011;55636;51.108;13.622;2022-09-09T05:57:53;2.55;;;2.22;;
68653;SDS011;55636;51.108;13.622;2022-09-09T05:58:55;2.30;;;2.10;;
68653;SDS011;55636;51.108;13.622;2022-09-09T05:59:58;4.20;;;2.40;;
68653;SDS011;55636;51.108;13.622;2022-09-09T06:01:02;2.33;;;2.13;;
68653;SDS011;55636;51.108;13.622;2022-09-09T06:02:09;3.58;;;2.40;;
68653;SDS011;55636;51.108;13.622;2022-09-09T06:03:12;4.43;;;2.63;;
68653;SDS011;55636;51.108;13.622;2022-09-09T06:04:14;4.93;;;2.30;;
68653;SDS011;55636;51.108;13.622;2022-09-09T06:05:17;3.88;;;2.38;;
68653;SDS011;55636;51.108;13.622;2022-09-09T06:06:24;3.83;;;2.20;;
68653;SDS011;55636;51.108;13.622;2022-09-09T06:07:30;3.00;;;2.20;;
68653;SDS011;55636;51.108;13.622;2022-09-09T06:08:33;7.82;;;2.58;;
68653;SDS011;55636;51.108;13.622;2022-09-09T06:09:39;2.55;;;2.30;;
68653;SDS011;55636;51.108;13.622;2022-09-09T06:10:42;3.22;;;2.33;;
68653;SDS011;55636;51.108;13.622;2022-09-09T06:11:45;2.92;;;2.47;;
68653;SDS011;55636;51.108;13.622;2022-09-09T06:12:51;2.83;;;2.42;;
68653;SDS011;55636;51.108;13.622;2022-09-09T06:13:54;3.60;;;2.40;;
68653;SDS011;55636;51.108;13.622;2022-09-09T06:14:56;3.15;;;2.63;;
68653;SDS011;55636;51.108;13.622;2022-09-09T06:15:58;2.70;;;2.10;;
68653;SDS011;55636;51.108;13.622;2022-09-09T06:17:02;3.95;;;2.20;;
68653;SDS011;55636;51.108;13.622;2022-09-09T06:18:05;2.30;;;2.10;;
68653;SDS011;55636;51.108;13.622;2022-09-09T06:19:07;4.30;;;2.40;;
68653;SDS011;55636;51.108;13.622;2022-09-09T06:20:09;5.55;;;2.50;;
68653;SDS011;55636;51.108;13.622;2022-09-09T06:21:16;3.80;;;2.67;;
68653;SDS011;55636;51.108;13.622;2022-09-09T06:22:21;5.88;;;2.65;;
68653;SDS011;55636;51.108;13.622;2022-09-09T06:23:24;5.80;;;2.78;;
68653;SDS011;55636;51.108;13.622;2022-09-09T06:24:28;4.03;;;2.50;;
68653;SDS011;55636;51.108;13.622;2022-09-09T06:25:33;4.20;;;2.50;;
68653;SDS011;55636;51.108;13.622;2022-09-09T06:26:37;3.25;;;2.90;;
68653;SDS011;55636;51.108;13.622;2022-09-09T06:27:49;4.88;;;2.78;;
68653;SDS011;55636;51.108;13.622;2022-09-09T06:28:52;3.83;;;2.67;;
68653;SDS011;55636;51.108;13.622;2022-09-09T06:29:56;5.78;;;2.97;;
68653;SDS011;55636;51.108;13.622;2022-09-09T06:31:03;5.13;;;2.90;;
68653;SDS011;55636;51.108;13.622;2022-09-09T06:32:07;3.22;;;2.50;;
68653;SDS011;55636;51.108;13.622;2022-09-09T06:33:10;4.70;;;2.70;;
68653;SDS011;55636;51.108;13.622;2022-09-09T06:34:12;5.38;;;2.60;;
68653;SDS011;55636;51.108;13.622;2022-09-09T06:35:18;5.07;;;2.63;;
68653;SDS011;55636;51.108;13.622;2022-09-09T06:36:22;3.78;;;2.50;;
68653;SDS011;55636;51.108;13.622;2022-09-09T06:37:29;2.63;;;2.40;;
68653;SDS011;55636;51.108;13.622;2022-09-09T06:38:31;3.90;;;2.70;;
68653;SDS011;55636;51.108;13.622;2022-09-09T06:39:34;2.42;;;2.15;;
68653;SDS011;55636;51.108;13.622;2022-09-09T06:40:37;4.50;;;2.20;;
68653;SDS011;55636;51.108;13.622;2022-09-09T06:41:40;2.63;;;2.40;;
68653;SDS011;55636;51.108;13.622;2022-09-09T06:43:00;3.53;;;2.50;;
68653;SDS011;55636;51.108;13.622;2022-09-09T06:44:10;4.95;;;2.60;;
68653;SDS011;55636;51.108;13.622;2022-09-09T06:45:16;4.32;;;3.15;;
68653;SDS011;55636;51.108;13.622;2022-09-09T06:46:26;5.55;;;3.15;;
68653;SDS011;55636;51.108;13.622;2022-09-09T06:47:30;4.43;;;3.35;;
68653;SDS011;55636;51.108;13.622;2022-09-09T06:48:33;5.72;;;3.40;;
68653;SDS011;55636;51.108;13.622;2022-09-09T06:49:35;4.97;;;3.15;;
68653;SDS011;55636;51.108;13.622;2022-09-09T06:50:41;4.03;;;3.08;;
68653;SDS011;55636;51.108;13.622;2022-09-09T06:51:44;3.38;;;3.10;;
68653;SDS011;55636;51.108;13.622;2022-09-09T06:52:47;5.97;;;3.40;;
68653;SDS011;55636;51.108;13.622;2022-09-09T06:53:50;5.80;;;3.03;;
68653;SDS011;55636;51.108;13.622;2022-09-09T06:54:55;6.28;;;3.58;;
68653;SDS011;55636;51.108;13.622;2022-09-09T06:56:01;4.25;;;3.10;;
68653;SDS011;55636;51.108;13.622;2022-09-09T06:57:05;3.30;;;3.00;;
68653;SDS011;55636;51.108;13.622;2022-09-09T06:58:29;5.40;;;2.95;;
68653;SDS011;55636;51.108;13.622;2022-09-09T06:59:34;4.18;;;3.10;;
68653;SDS011;55636;51.108;13.622;2022-09-09T07:00:36;3.08;;;2.78;;
68653;SDS011;55636;51.108;13.622;2022-09-09T07:01:42;3.95;;;2.95;;
68653;SDS011;55636;51.108;13.622;2022-09-09T07:02:57;3.08;;;2.42;;
68653;SDS011;55636;51.108;13.622;2022-09-09T07:03:59;3.63;;;2.70;;
68653;SDS011;55636;51.108;13.622;2022-09-09T07:05:02;3.78;;;2.70;;
68653;SDS011;55636;51.108;13.622;2022-09-09T07:06:05;4.88;;;2.40;;
68653;SDS011;55636;51.108;13.622;2022-09-09T07:07:09;3.83;;;2.30;;
68653;SDS011;55636;51.108;13.622;2022-09-09T07:08:14;4.60;;;2.25;;
68653;SDS011;55636;51.108;13.622;2022-09-09T07:09:17;4.82;;;2.38;;
68653;SDS011;55636;51.108;13.622;2022-09-09T07:10:22;6.10;;;2.38;;
68653;SDS011;55636;51.108;13.622;2022-09-09T07:11:25;3.50;;;2.20;;
68653;SDS011;55636;51.108;13.622;2022-09-09T07:12:50;3.03;;;1.90;;
68653;SDS011;55636;51.108;13.622;2022-09-09T07:13:57;4.05;;;2.28;;
68653;SDS011;55636;51.108;13.622;2022-09-09T07:15:00;2.42;;;2.17;;